Time;durP1;ratioP1;P1;durP2;ratioP2;P2;SDS_P1;SDS_P2;PMS_P1;PMS_P2;Temp;Humidity;BMP_temperature;BMP_pressure;BME280_temperature;BME280_humidity;BME280_pressure;Samples;Min_cycle;Max_cycle;Signal;HPM_P1;HPM_P2
2024/02/26 00:02:54;;;;;;;11.40;7.10;;;;;;;;;;6268039;28;20049;-80
2024/02/26 00:05:56;;;;;;;10.13;6.47;;;;;;;;;;6282674;28;20201;-80
2024/02/26 00:08:58;;;;;;;10.95;6.35;;;;;;;;;;6266738;28;20041;-80
2024/02/26 00:12:01;;;;;;;9.88;6.80;;;;;;;;;;6287455;28;20051;-80
2024/02/26 00:15:08;;;;;;;9.57;6.38;;;;;;;;;;6259253;28;20048;-80
2024/02/26 00:18:10;;;;;;;10.65;5.50;;;;;;;;;;6254699;28;20528;-80
2024/02/26 00:21:12;;;;;;;9.57;5.75;;;;;;;;;;6280248;28;20075;-80
2024/02/26 00:24:15;;;;;;;11.73;7.03;;;;;;;;;;6274841;28;20171;-81
2024/02/26 00:27:18;;;;;;;13.75;6.85;;;;;;;;;;6260878;28;20052;-80
2024/02/26 00:30:20;;;;;;;12.27;7.28;;;;;;;;;;6260729;28;20049;-80
2024/02/26 00:33:23;;;;;;;12.75;8.27;;;;;;;;;;6281715;28;20119;-80
2024/02/26 00:36:26;;;;;;;15.73;7.68;;;;;;;;;;6250313;28;20052;-80
2024/02/26 00:39:28;;;;;;;19.15;10.85;;;;;;;;;;6247211;28;20801;-80
2024/02/26 00:42:31;;;;;;;18.73;9.38;;;;;;;;;;6246301;28;20114;-80
2024/02/26 00:45:33;;;;;;;12.65;8.07;;;;;;;;;;6266534;28;20059;-79
2024/02/26 00:48:37;;;;;;;15.38;8.40;;;;;;;;;;6268969;28;20078;-79
2024/02/26 00:51:39;;;;;;;16.30;8.07;;;;;;;;;;6261890;28;20040;-79
2024/02/26 00:54:44;;;;;;;11.02;7.10;;;;;;;;;;6277317;28;20059;-79
2024/02/26 00:57:46;;;;;;;14.20;7.35;;;;;;;;;;6266867;28;20063;-79
2024/02/26 01:00:48;;;;;;;14.23;7.13;;;;;;;;;;6277408;28;20186;-79
2024/02/26 01:03:52;;;;;;;12.82;6.70;;;;;;;;;;6263019;28;20063;-79
2024/02/26 01:06:54;;;;;;;12.02;6.70;;;;;;;;;;6263925;28;20041;-79
2024/02/26 01:09:56;;;;;;;11.60;7.25;;;;;;;;;;6260726;28;20059;-79
2024/02/26 01:12:58;;;;;;;16.58;8.23;;;;;;;;;;6257847;28;20037;-80
2024/02/26 01:16:01;;;;;;;15.43;6.97;;;;;;;;;;6242626;28;20075;-80
2024/02/26 01:19:03;;;;;;;12.20;7.43;;;;;;;;;;6248892;28;20560;-79
2024/02/26 01:22:05;;;;;;;12.60;7.80;;;;;;;;;;6261112;28;20779;-79
2024/02/26 01:25:07;;;;;;;12.85;8.32;;;;;;;;;;6260728;28;20106;-79
2024/02/26 01:28:10;;;;;;;11.65;6.85;;;;;;;;;;6260697;28;20638;-79
2024/02/26 01:31:12;;;;;;;10.27;7.35;;;;;;;;;;6262804;28;20071;-80
2024/02/26 01:34:15;;;;;;;11.23;6.60;;;;;;;;;;6233076;28;20055;-80
2024/02/26 01:37:18;;;;;;;12.00;7.05;;;;;;;;;;6246076;28;20068;-80
2024/02/26 01:40:20;;;;;;;10.32;6.28;;;;;;;;;;6263414;28;20036;-80
2024/02/26 01:43:22;;;;;;;13.32;8.10;;;;;;;;;;6240114;28;20044;-80
2024/02/26 01:46:25;;;;;;;15.02;9.38;;;;;;;;;;6248832;28;20040;-79
2024/02/26 01:49:27;;;;;;;15.52;9.73;;;;;;;;;;6263919;28;20053;-79
2024/02/26 01:52:29;;;;;;;18.00;9.63;;;;;;;;;;6244727;28;20097;-80
2024/02/26 01:55:31;;;;;;;15.90;9.88;;;;;;;;;;6264325;28;20048;-79
2024/02/26 01:58:35;;;;;;;16.23;10.13;;;;;;;;;;6278912;28;20128;-79
2024/02/26 02:01:38;;;;;;;15.13;9.73;;;;;;;;;;6281888;28;20517;-79
2024/02/26 02:04:41;;;;;;;18.27;11.23;;;;;;;;;;6259380;28;20052;-79
2024/02/26 02:07:44;;;;;;;18.13;9.73;;;;;;;;;;6260000;28;20053;-80
2024/02/26 02:10:49;;;;;;;16.92;11.05;;;;;;;;;;6262791;28;20126;-80
2024/02/26 02:13:51;;;;;;;16.65;10.05;;;;;;;;;;6258083;28;20044;-80
2024/02/26 02:16:53;;;;;;;14.82;10.13;;;;;;;;;;6280633;28;20040;-80
2024/02/26 02:19:55;;;;;;;19.63;10.02;;;;;;;;;;6226580;28;20656;-80
2024/02/26 02:22:58;;;;;;;20.42;10.57;;;;;;;;;;6244751;28;20576;-80
2024/02/26 02:26:00;;;;;;;15.27;10.23;;;;;;;;;;6275073;28;20041;-80
2024/02/26 02:29:05;;;;;;;20.27;10.52;;;;;;;;;;6241824;28;20053;-80
2024/02/26 02:32:09;;;;;;;15.80;10.90;;;;;;;;;;6255574;28;20078;-80
2024/02/26 02:35:11;;;;;;;21.75;12.10;;;;;;;;;;6226114;28;20695;-80
2024/02/26 02:38:15;;;;;;;19.98;10.70;;;;;;;;;;6240478;28;20053;-80
2024/02/26 02:41:18;;;;;;;17.48;10.15;;;;;;;;;;6275134;28;20048;-80
2024/02/26 02:44:20;;;;;;;16.80;10.27;;;;;;;;;;6257953;28;20538;-79
2024/02/26 02:47:24;;;;;;;23.35;11.95;;;;;;;;;;6260765;28;20067;-80
2024/02/26 02:50:26;;;;;;;20.83;11.25;;;;;;;;;;6246943;28;20943;-80
2024/02/26 02:53:30;;;;;;;25.83;16.15;;;;;;;;;;6250824;28;20197;-81
2024/02/26 02:56:43;;;;;;;18.13;11.95;;;;;;;;;;6266454;28;20041;-80
2024/02/26 02:59:46;;;;;;;22.27;13.77;;;;;;;;;;6264362;28;20057;-79
2024/02/26 03:02:49;;;;;;;20.02;12.10;;;;;;;;;;6248316;28;20437;-79
2024/02/26 03:05:52;;;;;;;21.52;13.18;;;;;;;;;;6259405;28;20105;-78
2024/02/26 03:08:54;;;;;;;21.65;12.98;;;;;;;;;;6236456;28;20048;-79
2024/02/26 03:11:57;;;;;;;20.88;13.90;;;;;;;;;;6249771;28;20768;-79
2024/02/26 03:15:02;;;;;;;22.65;13.30;;;;;;;;;;6236405;28;20048;-78
2024/02/26 03:18:05;;;;;;;23.50;14.20;;;;;;;;;;6281647;28;20048;-78
2024/02/26 03:21:07;;;;;;;27.08;16.40;;;;;;;;;;6244203;28;20521;-79
2024/02/26 03:24:10;;;;;;;24.98;14.15;;;;;;;;;;6228765;28;20044;-79
2024/02/26 03:27:13;;;;;;;26.50;14.77;;;;;;;;;;6240305;28;20193;-79
2024/02/26 03:30:16;;;;;;;24.10;15.13;;;;;;;;;;6261622;28;20040;-79
2024/02/26 03:33:18;;;;;;;24.98;14.55;;;;;;;;;;6258274;28;20084;-79
2024/02/26 03:36:22;;;;;;;21.20;14.77;;;;;;;;;;6227262;28;20041;-79
2024/02/26 03:39:26;;;;;;;27.60;14.48;;;;;;;;;;6243725;28;20514;-79
2024/02/26 03:42:28;;;;;;;24.58;13.93;;;;;;;;;;6277151;28;20127;-78
2024/02/26 03:45:31;;;;;;;24.80;13.48;;;;;;;;;;6275824;28;20114;-79
2024/02/26 03:48:35;;;;;;;23.70;13.15;;;;;;;;;;6281666;28;20040;-79
2024/02/26 03:51:37;;;;;;;23.30;13.95;;;;;;;;;;6262433;28;20583;-78
2024/02/26 03:54:39;;;;;;;23.73;13.18;;;;;;;;;;6229487;28;20057;-79
2024/02/26 03:57:41;;;;;;;19.17;12.00;;;;;;;;;;6267902;28;20055;-79
2024/02/26 04:00:44;;;;;;;26.08;16.13;;;;;;;;;;6247046;28;20147;-79
2024/02/26 04:03:46;;;;;;;22.08;12.63;;;;;;;;;;6261312;28;20057;-79
2024/02/26 04:06:48;;;;;;;22.00;13.10;;;;;;;;;;6248689;28;20036;-79
2024/02/26 04:09:51;;;;;;;18.08;11.55;;;;;;;;;;6264323;28;20040;-79
2024/02/26 04:12:56;;;;;;;20.00;12.35;;;;;;;;;;6262599;28;20067;-78
2024/02/26 04:16:03;;;;;;;20.00;11.70;;;;;;;;;;6276411;28;20147;-79
2024/02/26 04:19:06;;;;;;;19.15;11.27;;;;;;;;;;6226559;28;20036;-79
2024/02/26 04:22:11;;;;;;;19.50;12.27;;;;;;;;;;6245453;28;20495;-80
2024/02/26 04:25:14;;;;;;;20.17;11.02;;;;;;;;;;6278504;28;20214;-79
2024/02/26 04:28:17;;;;;;;23.85;13.38;;;;;;;;;;6231565;28;20079;-79
2024/02/26 04:31:19;;;;;;;19.40;11.73;;;;;;;;;;6282068;28;20103;-79
2024/02/26 04:34:22;;;;;;;18.38;11.90;;;;;;;;;;6267381;28;20041;-80
2024/02/26 04:37:30;;;;;;;20.30;10.70;;;;;;;;;;6256286;28;20187;-81
2024/02/26 04:40:33;;;;;;;18.95;11.95;;;;;;;;;;6284273;28;20048;-79
2024/02/26 04:43:41;;;;;;;19.02;11.93;;;;;;;;;;6279605;28;20036;-79
2024/02/26 04:46:44;;;;;;;15.80;10.15;;;;;;;;;;6245724;28;20633;-80
2024/02/26 04:49:50;;;;;;;21.48;10.98;;;;;;;;;;6267001;28;20040;-79
2024/02/26 04:52:53;;;;;;;17.23;10.40;;;;;;;;;;6228824;28;20155;-78
2024/02/26 04:55:56;;;;;;;16.58;10.50;;;;;;;;;;6258302;28;20048;-79
2024/02/26 04:58:58;;;;;;;25.25;16.05;;;;;;;;;;6247140;28;20060;-79
2024/02/26 05:02:02;;;;;;;21.17;12.40;;;;;;;;;;6261208;28;20500;-78
2024/02/26 05:05:08;;;;;;;23.23;11.82;;;;;;;;;;6258004;28;20074;-79
2024/02/26 05:08:10;;;;;;;21.27;12.48;;;;;;;;;;6228100;28;20052;-79
2024/02/26 05:11:13;;;;;;;18.92;10.00;;;;;;;;;;6247299;28;20776;-80
2024/02/26 05:14:18;;;;;;;18.35;10.98;;;;;;;;;;6238768;28;20711;-80
2024/02/26 05:17:21;;;;;;;21.45;9.68;;;;;;;;;;6260455;28;20214;-79
2024/02/26 05:20:27;;;;;;;21.00;11.63;;;;;;;;;;6246565;28;20052;-79
2024/02/26 05:23:30;;;;;;;18.63;13.43;;;;;;;;;;6264585;28;20052;-79
2024/02/26 05:26:32;;;;;;;19.40;11.80;;;;;;;;;;6267359;28;20041;-79
2024/02/26 05:29:34;;;;;;;20.38;12.60;;;;;;;;;;6266157;28;20673;-79
2024/02/26 05:32:36;;;;;;;20.05;12.05;;;;;;;;;;6262000;28;20047;-79
2024/02/26 05:35:40;;;;;;;18.60;12.27;;;;;;;;;;6255127;28;20048;-79
2024/02/26 05:38:46;;;;;;;19.05;12.25;;;;;;;;;;6265336;28;20047;-79
2024/02/26 05:41:49;;;;;;;17.40;10.95;;;;;;;;;;6247300;28;20044;-80
2024/02/26 05:44:51;;;;;;;20.48;12.88;;;;;;;;;;6260501;28;20495;-79
2024/02/26 05:47:56;;;;;;;29.08;20.67;;;;;;;;;;6263371;28;20495;-79
2024/02/26 05:51:00;;;;;;;28.50;21.35;;;;;;;;;;6240648;28;20064;-79
2024/02/26 05:54:03;;;;;;;40.25;21.42;;;;;;;;;;6265169;28;20962;-79
2024/02/26 05:57:05;;;;;;;32.03;19.52;;;;;;;;;;6262944;28;20056;-79
2024/02/26 06:00:09;;;;;;;26.42;17.00;;;;;;;;;;6244682;28;20033;-79
2024/02/26 06:03:15;;;;;;;33.05;20.13;;;;;;;;;;6281818;28;20076;-79
2024/02/26 06:06:18;;;;;;;34.30;16.40;;;;;;;;;;6266209;28;20132;-79
2024/02/26 06:09:22;;;;;;;30.73;16.85;;;;;;;;;;6255190;28;20433;-79
2024/02/26 06:12:28;;;;;;;23.27;15.77;;;;;;;;;;6273677;28;20836;-79
2024/02/26 06:15:30;;;;;;;22.88;13.18;;;;;;;;;;6279031;28;20084;-79
2024/02/26 06:18:32;;;;;;;26.15;16.95;;;;;;;;;;6237277;28;20048;-79
2024/02/26 06:21:35;;;;;;;38.25;18.48;;;;;;;;;;6273832;28;20652;-80
2024/02/26 06:24:37;;;;;;;30.40;17.20;;;;;;;;;;6242199;28;20057;-79
2024/02/26 06:27:39;;;;;;;26.27;13.70;;;;;;;;;;6261869;28;20036;-80
2024/02/26 06:30:42;;;;;;;29.33;15.85;;;;;;;;;;6275675;28;20114;-80
2024/02/26 06:33:45;;;;;;;46.95;23.00;;;;;;;;;;6269048;28;20056;-79
2024/02/26 06:36:47;;;;;;;49.78;21.88;;;;;;;;;;6262804;28;20585;-80
2024/02/26 06:39:51;;;;;;;44.65;20.75;;;;;;;;;;6250520;28;20142;-78
2024/02/26 06:42:55;;;;;;;39.88;21.67;;;;;;;;;;6275583;28;20813;-79
2024/02/26 06:46:00;;;;;;;43.90;21.75;;;;;;;;;;6240120;28;20815;-79
2024/02/26 06:49:02;;;;;;;43.92;15.93;;;;;;;;;;6257421;28;20083;-80
2024/02/26 06:52:07;;;;;;;38.72;14.90;;;;;;;;;;6242090;28;20044;-79
2024/02/26 06:55:09;;;;;;;26.45;12.63;;;;;;;;;;6263209;28;20529;-79
2024/02/26 06:58:11;;;;;;;29.27;19.65;;;;;;;;;;6281502;28;20127;-78
2024/02/26 07:01:15;;;;;;;40.97;23.67;;;;;;;;;;6259888;28;20055;-79
2024/02/26 07:04:17;;;;;;;20.77;13.48;;;;;;;;;;6273736;28;20044;-79
2024/02/26 07:07:19;;;;;;;19.85;11.07;;;;;;;;;;6256984;28;20055;-80
2024/02/26 07:10:22;;;;;;;19.17;11.77;;;;;;;;;;6263315;28;20044;-79
2024/02/26 07:13:24;;;;;;;16.55;11.73;;;;;;;;;;6262379;28;20052;-79
2024/02/26 07:16:27;;;;;;;20.92;12.35;;;;;;;;;;6275762;28;20047;-79
2024/02/26 07:19:29;;;;;;;28.20;18.02;;;;;;;;;;6262480;28;21159;-79
2024/02/26 07:22:33;;;;;;;31.45;16.25;;;;;;;;;;6245387;28;20131;-79
2024/02/26 07:25:37;;;;;;;27.98;14.45;;;;;;;;;;6262688;28;20059;-79
2024/02/26 07:28:40;;;;;;;33.38;13.38;;;;;;;;;;6260234;28;20054;-80
2024/02/26 07:31:42;;;;;;;31.60;15.55;;;;;;;;;;6258140;28;20056;-79
2024/02/26 07:34:45;;;;;;;22.95;16.27;;;;;;;;;;6257541;28;20056;-80
2024/02/26 07:37:50;;;;;;;32.97;16.13;;;;;;;;;;6245207;28;20091;-78
2024/02/26 07:40:52;;;;;;;27.52;16.27;;;;;;;;;;6277948;28;20048;-78
2024/02/26 07:44:05;;;;;;;19.67;13.52;;;;;;;;;;6241536;28;20143;-78
2024/02/26 07:47:07;;;;;;;17.65;13.82;;;;;;;;;;6257198;28;20029;-79
2024/02/26 07:50:11;;;;;;;11.70;7.38;;;;;;;;;;6256455;28;20242;-80
2024/02/26 07:53:14;;;;;;;18.23;12.35;;;;;;;;;;6277869;28;20581;-79
2024/02/26 07:56:19;;;;;;;30.25;18.52;;;;;;;;;;6259720;28;20040;-79
2024/02/26 07:59:21;;;;;;;15.40;10.52;;;;;;;;;;6243795;28;20824;-78
2024/02/26 08:02:24;;;;;;;15.50;10.20;;;;;;;;;;6262542;28;20044;-78
2024/02/26 08:05:27;;;;;;;14.90;9.70;;;;;;;;;;6242610;28;20040;-77
2024/02/26 08:08:29;;;;;;;18.13;11.07;;;;;;;;;;6246144;28;20040;-78
2024/02/26 08:11:31;;;;;;;14.50;8.40;;;;;;;;;;6262995;28;20608;-78
2024/02/26 08:14:34;;;;;;;12.20;8.38;;;;;;;;;;6241803;28;20049;-78
2024/02/26 08:17:36;;;;;;;11.45;7.13;;;;;;;;;;6231158;28;20040;-77
2024/02/26 08:20:40;;;;;;;10.88;7.13;;;;;;;;;;6286169;28;20052;-77
2024/02/26 08:23:44;;;;;;;11.77;7.68;;;;;;;;;;6266172;28;20056;-75
2024/02/26 08:26:46;;;;;;;11.25;6.35;;;;;;;;;;6261563;28;20071;-76
2024/02/26 08:29:48;;;;;;;19.10;11.10;;;;;;;;;;6258091;28;20136;-78
2024/02/26 08:32:50;;;;;;;16.10;9.35;;;;;;;;;;6246868;28;20052;-78
2024/02/26 08:35:53;;;;;;;17.50;8.68;;;;;;;;;;6249344;28;20064;-77
2024/02/26 08:38:57;;;;;;;29.00;12.60;;;;;;;;;;6262789;28;20044;-78
2024/02/26 08:41:59;;;;;;;12.85;7.30;;;;;;;;;;6245625;28;20348;-77
2024/02/26 08:45:03;;;;;;;13.75;6.57;;;;;;;;;;6260787;28;20060;-82
2024/02/26 08:48:06;;;;;;;13.93;6.70;;;;;;;;;;6247354;28;20785;-77
2024/02/26 08:51:09;;;;;;;7.35;4.68;;;;;;;;;;6284871;28;20075;-78
2024/02/26 08:54:11;;;;;;;19.98;5.93;;;;;;;;;;6236108;28;20546;-78
2024/02/26 08:57:14;;;;;;;8.80;4.32;;;;;;;;;;6249396;28;20600;-76
2024/02/26 09:00:20;;;;;;;8.10;5.65;;;;;;;;;;6264739;28;20878;-80
2024/02/26 09:03:23;;;;;;;6.10;4.07;;;;;;;;;;6246886;28;20040;-80
2024/02/26 09:06:26;;;;;;;8.95;4.65;;;;;;;;;;6247273;28;20105;-79
2024/02/26 09:09:29;;;;;;;7.20;4.25;;;;;;;;;;6267152;28;20418;-80
2024/02/26 09:12:33;;;;;;;7.10;4.00;;;;;;;;;;6257311;28;20801;-80
2024/02/26 09:15:36;;;;;;;4.50;3.13;;;;;;;;;;6282304;28;20406;-80
2024/02/26 09:18:39;;;;;;;7.50;3.42;;;;;;;;;;6246752;28;20052;-81
2024/02/26 09:21:44;;;;;;;6.28;4.47;;;;;;;;;;6288754;28;20079;-80
2024/02/26 09:24:53;;;;;;;8.93;4.05;;;;;;;;;;6283909;28;20433;-81
2024/02/26 09:27:56;;;;;;;10.90;4.55;;;;;;;;;;6261768;28;20134;-80
2024/02/26 09:30:58;;;;;;;8.40;3.50;;;;;;;;;;6249595;28;20048;-80
2024/02/26 09:34:01;;;;;;;10.73;4.97;;;;;;;;;;6229988;28;20442;-84
2024/02/26 09:37:06;;;;;;;8.70;6.10;;;;;;;;;;6243979;28;20570;-81
2024/02/26 09:40:22;;;;;;;7.32;4.20;;;;;;;;;;6262625;28;20095;-81
2024/02/26 09:43:28;;;;;;;9.95;5.32;;;;;;;;;;6271514;28;20106;-80
2024/02/26 09:46:31;;;;;;;8.75;5.22;;;;;;;;;;6226225;28;20117;-80
2024/02/26 09:49:35;;;;;;;5.22;2.90;;;;;;;;;;6224129;28;20048;-80
2024/02/26 09:52:41;;;;;;;5.97;3.33;;;;;;;;;;6278044;28;20059;-81
2024/02/26 09:55:44;;;;;;;6.82;3.70;;;;;;;;;;6268191;28;20084;-80
2024/02/26 09:58:48;;;;;;;5.68;4.00;;;;;;;;;;6259201;28;20045;-80
2024/02/26 10:01:51;;;;;;;5.97;2.90;;;;;;;;;;6280496;28;20053;-80
2024/02/26 10:04:56;;;;;;;5.28;2.22;;;;;;;;;;6260617;28;20074;-78
2024/02/26 10:08:00;;;;;;;6.45;2.72;;;;;;;;;;6277579;28;20047;-79
2024/02/26 10:11:06;;;;;;;5.75;3.00;;;;;;;;;;6261845;28;20087;-79
2024/02/26 10:14:08;;;;;;;4.95;3.03;;;;;;;;;;6247174;28;20041;-79
2024/02/26 10:17:12;;;;;;;4.82;2.45;;;;;;;;;;6260716;28;20056;-79
2024/02/26 10:20:16;;;;;;;6.18;2.58;;;;;;;;;;6243411;28;20044;-79
2024/02/26 10:23:19;;;;;;;4.18;2.80;;;;;;;;;;6259525;28;20053;-79
2024/02/26 10:26:21;;;;;;;4.38;2.85;;;;;;;;;;6245950;28;20056;-79
2024/02/26 10:29:25;;;;;;;4.72;2.85;;;;;;;;;;6264554;28;20057;-79
2024/02/26 10:32:28;;;;;;;9.05;3.45;;;;;;;;;;6278541;28;20892;-79
2024/02/26 10:35:31;;;;;;;7.65;3.15;;;;;;;;;;6244380;28;20052;-79
2024/02/26 10:38:38;;;;;;;5.57;3.22;;;;;;;;;;6245519;28;20048;-80
2024/02/26 10:41:45;;;;;;;6.85;3.17;;;;;;;;;;6243949;28;20105;-81
2024/02/26 10:44:48;;;;;;;7.07;3.90;;;;;;;;;;6247077;28;20877;-81
2024/02/26 10:47:50;;;;;;;5.63;2.70;;;;;;;;;;6264980;28;20047;-79
2024/02/26 10:50:53;;;;;;;5.30;2.90;;;;;;;;;;6247248;28;20501;-79
2024/02/26 10:54:00;;;;;;;6.93;3.00;;;;;;;;;;6250921;28;20044;-81
2024/02/26 10:57:04;;;;;;;6.60;4.50;;;;;;;;;;6281526;28;20219;-80
2024/02/26 11:00:06;;;;;;;5.30;3.42;;;;;;;;;;6267979;28;20032;-77
2024/02/26 11:03:10;;;;;;;5.40;3.05;;;;;;;;;;6242978;28;20153;-78
2024/02/26 11:06:12;;;;;;;7.00;3.78;;;;;;;;;;6262239;28;20053;-80
2024/02/26 11:09:15;;;;;;;5.95;3.13;;;;;;;;;;6269739;28;20029;-80
2024/02/26 11:12:18;;;;;;;7.35;3.20;;;;;;;;;;6250689;28;20079;-79
2024/02/26 11:15:21;;;;;;;6.07;4.05;;;;;;;;;;6216890;28;20866;-80
2024/02/26 11:18:27;;;;;;;6.07;3.17;;;;;;;;;;6277748;28;20075;-80
2024/02/26 11:21:39;;;;;;;5.32;2.92;;;;;;;;;;6246840;28;20083;-80
2024/02/26 11:24:42;;;;;;;4.82;2.88;;;;;;;;;;6268304;28;20045;-80
2024/02/26 11:27:54;;;;;;;6.75;3.78;;;;;;;;;;6259138;28;20407;-81
2024/02/26 11:30:59;;;;;;;4.85;3.38;;;;;;;;;;6243603;28;20496;-80
2024/02/26 11:34:03;;;;;;;5.43;3.10;;;;;;;;;;6262303;28;20071;-81
2024/02/26 11:37:20;;;;;;;8.80;3.33;;;;;;;;;;6245543;28;20076;-81
2024/02/26 11:40:25;;;;;;;6.43;2.90;;;;;;;;;;6257073;28;20056;-80
2024/02/26 11:43:52;;;;;;;6.38;3.35;;;;;;;;;;6213397;28;20156;-81
2024/02/26 11:46:56;;;;;;;8.05;3.33;;;;;;;;;;6260758;28;20044;-80
2024/02/26 11:49:59;;;;;;;4.80;2.60;;;;;;;;;;6230650;28;20045;-80
2024/02/26 11:53:30;;;;;;;6.53;2.53;;;;;;;;;;6274982;28;20071;-80
2024/02/26 11:56:35;;;;;;;6.00;4.78;;;;;;;;;;6238158;28;20106;-79
2024/02/26 11:59:39;;;;;;;5.65;2.97;;;;;;;;;;6279602;28;20036;-80
2024/02/26 12:02:43;;;;;;;5.88;3.40;;;;;;;;;;6260664;28;20040;-80
2024/02/26 12:05:48;;;;;;;7.05;2.85;;;;;;;;;;6280879;28;20611;-79
2024/02/26 12:08:51;;;;;;;8.20;2.90;;;;;;;;;;6245723;28;20727;-80
2024/02/26 12:11:55;;;;;;;4.80;2.22;;;;;;;;;;6263212;28;20794;-81
2024/02/26 12:14:59;;;;;;;11.77;3.72;;;;;;;;;;6265643;28;20059;-80
2024/02/26 12:18:04;;;;;;;6.28;3.35;;;;;;;;;;6250873;28;20121;-81
2024/02/26 12:21:07;;;;;;;8.48;4.25;;;;;;;;;;6284994;28;20048;-80
2024/02/26 12:24:12;;;;;;;6.55;2.88;;;;;;;;;;6264385;28;20710;-80
2024/02/26 12:27:15;;;;;;;4.43;2.72;;;;;;;;;;6247572;28;20123;-80
2024/02/26 12:30:18;;;;;;;8.02;3.15;;;;;;;;;;6263748;28;20052;-80
2024/02/26 12:33:21;;;;;;;5.18;2.80;;;;;;;;;;6264032;28;20112;-80
2024/02/26 12:36:24;;;;;;;5.80;3.08;;;;;;;;;;6266132;28;20179;-80
2024/02/26 12:39:26;;;;;;;5.50;2.92;;;;;;;;;;6264440;28;20044;-80
2024/02/26 12:42:32;;;;;;;4.95;2.38;;;;;;;;;;6232482;28;20064;-80
2024/02/26 12:45:35;;;;;;;8.98;2.70;;;;;;;;;;6247247;28;20036;-80
2024/02/26 12:48:37;;;;;;;6.32;2.70;;;;;;;;;;6249584;28;20036;-80
2024/02/26 12:51:41;;;;;;;7.22;3.28;;;;;;;;;;6267507;28;20052;-80
2024/02/26 12:54:45;;;;;;;5.55;2.00;;;;;;;;;;6269380;28;20064;-80
2024/02/26 12:57:49;;;;;;;6.65;2.85;;;;;;;;;;6266356;28;20446;-79
2024/02/26 13:00:52;;;;;;;4.43;1.95;;;;;;;;;;6266538;28;20206;-80
2024/02/26 13:03:55;;;;;;;4.63;2.53;;;;;;;;;;6264346;28;20055;-80
2024/02/26 13:07:03;;;;;;;3.88;2.17;;;;;;;;;;6284309;28;20186;-80
2024/02/26 13:10:07;;;;;;;4.80;2.80;;;;;;;;;;6266347;28;20458;-80
2024/02/26 13:13:09;;;;;;;4.63;2.47;;;;;;;;;;6282258;28;20174;-80
2024/02/26 13:16:14;;;;;;;4.55;2.28;;;;;;;;;;6265164;28;20147;-80
2024/02/26 13:19:17;;;;;;;5.30;2.38;;;;;;;;;;6229087;28;20847;-80
2024/02/26 13:22:24;;;;;;;6.07;2.47;;;;;;;;;;6280968;28;20044;-81
2024/02/26 13:25:27;;;;;;;3.92;1.95;;;;;;;;;;6265714;28;20053;-80
2024/02/26 13:28:29;;;;;;;5.72;3.38;;;;;;;;;;6283343;28;20048;-80
2024/02/26 13:31:39;;;;;;;4.55;2.13;;;;;;;;;;6259035;28;20217;-80
2024/02/26 13:34:46;;;;;;;5.68;2.80;;;;;;;;;;6261210;28;20045;-80
2024/02/26 13:37:48;;;;;;;5.32;2.90;;;;;;;;;;6277575;28;20128;-80
2024/02/26 13:40:52;;;;;;;7.07;2.75;;;;;;;;;;6286878;28;20878;-80
2024/02/26 13:43:54;;;;;;;6.70;2.30;;;;;;;;;;6269021;28;20486;-81
2024/02/26 13:46:57;;;;;;;5.13;2.95;;;;;;;;;;6252435;28;20060;-81
2024/02/26 13:50:00;;;;;;;5.05;2.45;;;;;;;;;;6268520;28;20045;-81
2024/02/26 13:53:03;;;;;;;4.75;2.08;;;;;;;;;;6266394;28;20173;-80
2024/02/26 13:56:07;;;;;;;4.38;2.58;;;;;;;;;;6268494;28;20044;-81
2024/02/26 13:59:09;;;;;;;5.05;2.33;;;;;;;;;;6267466;28;20051;-81
2024/02/26 14:02:11;;;;;;;6.65;3.17;;;;;;;;;;6249142;28;20041;-80
2024/02/26 14:05:14;;;;;;;7.13;3.55;;;;;;;;;;6270009;28;20131;-81
2024/02/26 14:08:17;;;;;;;5.50;2.92;;;;;;;;;;6230184;28;20041;-80
2024/02/26 14:11:20;;;;;;;4.75;2.53;;;;;;;;;;6278603;28;20052;-81
2024/02/26 14:14:22;;;;;;;6.20;2.30;;;;;;;;;;6242163;28;20126;-78
2024/02/26 14:17:26;;;;;;;7.28;2.90;;;;;;;;;;6281626;28;20127;-81
2024/02/26 14:20:28;;;;;;;8.27;2.55;;;;;;;;;;6246410;28;20044;-80
2024/02/26 14:23:30;;;;;;;5.50;2.67;;;;;;;;;;6262867;28;20053;-80
2024/02/26 14:26:34;;;;;;;5.20;2.17;;;;;;;;;;6260683;28;20048;-80
2024/02/26 14:29:37;;;;;;;6.68;2.90;;;;;;;;;;6243266;28;20044;-82
2024/02/26 14:32:39;;;;;;;5.68;3.03;;;;;;;;;;6277297;28;20098;-80
2024/02/26 14:35:42;;;;;;;5.13;2.22;;;;;;;;;;6268959;28;20425;-81
2024/02/26 14:38:53;;;;;;;5.47;3.08;;;;;;;;;;6263261;28;20183;-82
2024/02/26 14:41:55;;;;;;;6.90;2.97;;;;;;;;;;6291278;28;20040;-80
2024/02/26 14:44:58;;;;;;;3.63;2.42;;;;;;;;;;6285337;28;20051;-79
2024/02/26 14:48:00;;;;;;;4.45;2.42;;;;;;;;;;6300663;28;20085;-83
2024/02/26 14:51:10;;;;;;;7.68;2.72;;;;;;;;;;6281747;28;20557;-80
2024/02/26 14:54:17;;;;;;;10.55;3.95;;;;;;;;;;6281499;28;20055;-81
2024/02/26 14:57:19;;;;;;;14.80;10.20;;;;;;;;;;6265776;28;20063;-78
2024/02/26 15:00:22;;;;;;;24.90;11.98;;;;;;;;;;6269890;28;20160;-77
2024/02/26 15:03:30;;;;;;;36.00;15.45;;;;;;;;;;6287056;28;20302;-82
2024/02/26 15:06:34;;;;;;;15.55;9.23;;;;;;;;;;6287395;28;20094;-78
2024/02/26 15:09:39;;;;;;;11.52;6.75;;;;;;;;;;6239066;28;20122;-78
2024/02/26 15:12:43;;;;;;;28.58;16.30;;;;;;;;;;6283028;28;20049;-78
2024/02/26 15:15:46;;;;;;;33.20;17.25;;;;;;;;;;6267853;28;20609;-77
2024/02/26 15:18:49;;;;;;;17.20;10.75;;;;;;;;;;6281370;28;20093;-78
2024/02/26 15:21:52;;;;;;;20.40;10.63;;;;;;;;;;6269447;28;20053;-79
2024/02/26 15:24:55;;;;;;;25.90;14.57;;;;;;;;;;6262053;28;20048;-79
2024/02/26 15:27:57;;;;;;;14.10;9.73;;;;;;;;;;6264180;28;20059;-78
2024/02/26 15:30:59;;;;;;;17.90;11.85;;;;;;;;;;6286765;28;20051;-79
2024/02/26 15:34:02;;;;;;;37.30;20.38;;;;;;;;;;6222945;28;20197;-81
2024/02/26 15:37:08;;;;;;;22.33;13.88;;;;;;;;;;6223258;28;20045;-79
2024/02/26 15:40:15;;;;;;;19.42;10.13;;;;;;;;;;6273880;28;20044;-79
2024/02/26 15:43:19;;;;;;;19.15;8.82;;;;;;;;;;6278866;28;20108;-77
2024/02/26 15:46:21;;;;;;;29.75;11.23;;;;;;;;;;6290609;28;20045;-77
2024/02/26 15:49:24;;;;;;;14.15;9.05;;;;;;;;;;6269317;28;20056;-76
2024/02/26 15:52:27;;;;;;;14.55;8.38;;;;;;;;;;6288374;28;20417;-82
2024/02/26 15:55:29;;;;;;;12.38;7.60;;;;;;;;;;6251551;28;20729;-82
2024/02/26 15:58:32;;;;;;;18.70;8.13;;;;;;;;;;6236736;28;20548;-80
2024/02/26 16:01:35;;;;;;;20.23;11.23;;;;;;;;;;6270977;28;20449;-80
2024/02/26 16:04:37;;;;;;;24.67;12.30;;;;;;;;;;6255379;28;20036;-80
2024/02/26 16:07:49;;;;;;;25.65;14.98;;;;;;;;;;6282542;28;20044;-80
2024/02/26 16:10:53;;;;;;;18.15;7.22;;;;;;;;;;6257171;28;20051;-80
2024/02/26 16:14:20;;;;;;;14.00;5.55;;;;;;;;;;6257431;28;20052;-81
2024/02/26 16:17:33;;;;;;;10.75;4.95;;;;;;;;;;6272277;28;20536;-80
2024/02/26 16:20:38;;;;;;;11.88;5.07;;;;;;;;;;6251976;28;20639;-79
2024/02/26 16:23:40;;;;;;;8.43;4.35;;;;;;;;;;6254082;28;20056;-81
2024/02/26 16:26:42;;;;;;;6.60;4.35;;;;;;;;;;6247267;28;20059;-80
2024/02/26 16:29:45;;;;;;;10.48;4.32;;;;;;;;;;6272092;28;20052;-79
2024/02/26 16:32:48;;;;;;;7.20;4.53;;;;;;;;;;6250845;28;20060;-80
2024/02/26 16:35:51;;;;;;;10.68;4.78;;;;;;;;;;6251482;28;20483;-80
2024/02/26 16:38:53;;;;;;;12.43;4.78;;;;;;;;;;6219717;28;20830;-82
2024/02/26 16:41:56;;;;;;;10.10;5.65;;;;;;;;;;6265138;28;20159;-81
2024/02/26 16:45:00;;;;;;;9.52;6.82;;;;;;;;;;6261663;28;20067;-80
2024/02/26 16:48:05;;;;;;;10.02;6.30;;;;;;;;;;6275478;28;20548;-80
2024/02/26 16:51:07;;;;;;;11.15;6.00;;;;;;;;;;6260047;28;20136;-81
2024/02/26 16:54:10;;;;;;;11.23;6.95;;;;;;;;;;6281466;28;20032;-80
2024/02/26 16:57:17;;;;;;;11.80;7.28;;;;;;;;;;6275971;28;20148;-80
2024/02/26 17:00:22;;;;;;;9.88;4.72;;;;;;;;;;6263109;28;20733;-82
2024/02/26 17:03:26;;;;;;;7.65;5.20;;;;;;;;;;6271637;28;20067;-84
2024/02/26 17:06:28;;;;;;;8.80;5.53;;;;;;;;;;6271890;28;20139;-82
2024/02/26 17:09:33;;;;;;;11.65;5.78;;;;;;;;;;6264666;28;20051;-84
2024/02/26 17:12:36;;;;;;;11.10;6.88;;;;;;;;;;6251906;28;20048;-81
2024/02/26 17:15:39;;;;;;;11.30;7.20;;;;;;;;;;6253983;28;20060;-83
2024/02/26 17:18:42;;;;;;;11.10;6.80;;;;;;;;;;6264626;28;20114;-80
2024/02/26 17:21:44;;;;;;;12.18;7.35;;;;;;;;;;6277658;28;20072;-81
2024/02/26 17:24:47;;;;;;;10.80;6.90;;;;;;;;;;6284528;28;20054;-80
2024/02/26 17:27:51;;;;;;;10.48;6.72;;;;;;;;;;6267801;28;20557;-79
2024/02/26 17:30:54;;;;;;;11.65;6.45;;;;;;;;;;6300993;28;20185;-78
2024/02/26 17:33:57;;;;;;;11.55;6.38;;;;;;;;;;6286314;28;20060;-79
2024/02/26 17:37:01;;;;;;;13.38;6.88;;;;;;;;;;6260244;28;20051;-79
2024/02/26 17:40:08;;;;;;;11.57;6.63;;;;;;;;;;6265345;28;20052;-81
2024/02/26 17:43:10;;;;;;;13.25;6.45;;;;;;;;;;6273479;28;20060;-79
2024/02/26 17:46:13;;;;;;;10.52;6.78;;;;;;;;;;6277242;28;20048;-78
2024/02/26 17:49:16;;;;;;;20.40;12.57;;;;;;;;;;6242737;28;20051;-80
2024/02/26 17:52:21;;;;;;;19.63;10.80;;;;;;;;;;6281533;28;20045;-81
2024/02/26 17:55:24;;;;;;;12.75;6.63;;;;;;;;;;6260580;28;20418;-80
2024/02/26 17:58:28;;;;;;;13.48;5.38;;;;;;;;;;6259531;28;20083;-81
2024/02/26 18:01:30;;;;;;;12.00;5.72;;;;;;;;;;6267620;28;20053;-78
2024/02/26 18:04:33;;;;;;;9.57;5.68;;;;;;;;;;6285170;28;20044;-80